CheckWX is a tool to help pilots better visualize weather data.  It is not intended as a substitute for an official pre-flight weather briefing.

05:44:41 UTC

KPHX METAR
Phoenix Sky Harbor International Airport
Phoenix, Arizona, USA
Current

54 mins ago

KPHX 140451Z 10005KT 10SM BKN290 18/04 A2996 RMK AO2 SLP134 T01830039
Observed
Nov-14 @ 04:51 UTC
Wind
  • 100° at 5 KTS
Visibility
10 SM
Flight Rules
VFR
Cloud Levels
  • Broken at 29,000' AGL
Temperature
18°C / 64°F
Dewpoint
C / 39°F
Humidity
40%
Altimeter
29.96" Hg
Pressure
1014.52 hPa
Previous

2 hours ago

KPHX 140351Z 11006KT 10SM SCT230 BKN290 20/03 A2994 RMK AO2 SLP128 T02000033
Observed
Nov-14 @ 03:51 UTC
Wind
  • 110° at 6 KTS
Visibility
10 SM
Flight Rules
VFR
Cloud Levels
  • Scattered at 23,000' AGL
  • Broken at 29,000' AGL
Temperature
20°C / 68°F
Dewpoint
C / 37°F
Humidity
33%
Altimeter
29.94" Hg
Pressure
1013.92 hPa
Previous

3 hours ago

KPHX 140251Z 00000KT 10SM SCT230 BKN290 21/02 A2993 RMK AO2 SLP125 T02110022 53007
Observed
Nov-14 @ 02:51 UTC
Visibility
10 SM
Flight Rules
VFR
Cloud Levels
  • Scattered at 23,000' AGL
  • Broken at 29,000' AGL
Temperature
21°C / 70°F
Dewpoint
C / 36°F
Humidity
29%
Altimeter
29.93" Hg
Pressure
1013.52 hPa